Time;durP1;ratioP1;P1;durP2;ratioP2;P2;SDS_P1;SDS_P2;PMS_P1;PMS_P2;Temp;Humidity;BMP_temperature;BMP_pressure;BME280_temperature;BME280_humidity;BME280_pressure;Samples;Min_cycle;Max_cycle;Signal;HPM_P1;HPM_P2
2022/03/22 00:00:22;;;;;;;24.00;16.67;;;;;;;2.23;56.02;102649.06;4996373;28;20033;-22
2022/03/22 00:02:47;;;;;;;23.05;16.63;;;;;;;2.16;56.15;102642.56;4997085;28;20097;-21
2022/03/22 00:05:13;;;;;;;25.15;16.80;;;;;;;2.11;56.08;102650.16;4991879;28;20113;-22
2022/03/22 00:07:38;;;;;;;22.73;16.55;;;;;;;2.08;56.12;102655.16;4992383;28;20027;-21
2022/03/22 00:10:04;;;;;;;24.05;16.70;;;;;;;2.06;56.11;102654.16;4990771;28;20105;-21
2022/03/22 00:12:29;;;;;;;22.98;16.65;;;;;;;2.02;56.27;102660.00;4987849;28;20405;-21
2022/03/22 00:14:55;;;;;;;24.20;17.27;;;;;;;1.98;56.20;102663.25;4989429;28;20030;-22
2022/03/22 00:17:21;;;;;;;25.38;17.77;;;;;;;1.95;56.12;102657.84;4989129;28;20034;-21
2022/03/22 00:19:47;;;;;;;22.50;16.27;;;;;;;1.91;56.03;102662.00;4991539;28;20038;-21
2022/03/22 00:22:13;;;;;;;28.85;17.48;;;;;;;1.88;56.20;102660.09;4988944;28;20030;-21
2022/03/22 00:24:39;;;;;;;23.17;17.02;;;;;;;1.84;56.08;102660.75;4988999;28;20648;-22
2022/03/22 00:27:04;;;;;;;26.30;17.83;;;;;;;1.79;56.12;102662.16;4992742;28;20030;-21
2022/03/22 00:29:29;;;;;;;23.73;17.52;;;;;;;1.77;56.48;102666.38;4993306;28;20049;-20
2022/03/22 00:31:56;;;;;;;22.73;16.42;;;;;;;1.74;56.44;102668.81;4993959;28;20116;-22
2022/03/22 00:34:23;;;;;;;23.85;16.48;;;;;;;1.69;56.15;102665.00;4990706;28;20088;-21
2022/03/22 00:36:49;;;;;;;23.92;17.35;;;;;;;1.66;56.27;102664.03;4990244;28;20027;-22
2022/03/22 00:39:15;;;;;;;27.13;18.80;;;;;;;1.65;56.47;102667.44;4993246;28;20030;-22
2022/03/22 00:41:41;;;;;;;25.27;17.63;;;;;;;1.60;56.34;102661.06;4988507;28;20381;-20
2022/03/22 00:44:06;;;;;;;22.77;16.02;;;;;;;1.58;56.35;102662.69;4987906;28;20080;-22
2022/03/22 00:46:31;;;;;;;24.65;16.77;;;;;;;1.53;56.49;102664.09;4991461;28;20392;-21
2022/03/22 00:48:58;;;;;;;25.17;18.08;;;;;;;1.50;56.52;102664.81;4992079;28;20496;-22
2022/03/22 00:51:24;;;;;;;23.85;16.27;;;;;;;1.48;56.48;102660.31;4989556;28;20362;-20
2022/03/22 00:53:51;;;;;;;25.95;17.35;;;;;;;1.44;56.54;102669.66;4988917;28;20080;-22
2022/03/22 00:56:17;;;;;;;29.63;18.73;;;;;;;1.40;56.61;102658.16;4968241;28;20037;-21
2022/03/22 00:58:43;;;;;;;25.13;18.10;;;;;;;1.38;56.57;102671.88;4993602;28;20034;-22
2022/03/22 01:01:08;;;;;;;23.77;17.77;;;;;;;1.35;56.29;102669.97;4986978;28;20038;-21
2022/03/22 01:03:33;;;;;;;26.85;18.17;;;;;;;1.31;56.78;102662.81;4992099;28;20046;-21
2022/03/22 01:06:01;;;;;;;25.15;18.70;;;;;;;1.28;56.97;102667.81;4994836;28;20034;-22
2022/03/22 01:08:29;;;;;;;24.85;18.30;;;;;;;1.25;56.47;102662.41;4989100;28;20034;-22
2022/03/22 01:10:54;;;;;;;25.67;18.08;;;;;;;1.22;56.96;102664.81;4997237;28;20493;-21
2022/03/22 01:13:21;;;;;;;26.63;18.60;;;;;;;1.19;56.91;102662.03;4991602;28;20109;-21
2022/03/22 01:15:47;;;;;;;25.92;18.23;;;;;;;1.17;56.88;102663.66;4988646;28;20026;-22
2022/03/22 01:18:13;;;;;;;26.63;18.15;;;;;;;1.11;56.44;102662.47;4990847;28;20049;-22
2022/03/22 01:20:41;;;;;;;26.83;18.20;;;;;;;1.08;57.06;102667.47;4992181;28;20027;-20
2022/03/22 01:23:07;;;;;;;26.95;19.02;;;;;;;1.06;56.57;102666.47;4991545;28;20084;-21
2022/03/22 01:25:34;;;;;;;25.02;18.05;;;;;;;1.03;56.75;102663.66;4990585;28;20035;-21
2022/03/22 01:28:02;;;;;;;24.20;17.83;;;;;;;0.98;56.95;102653.00;4990583;28;20026;-21
2022/03/22 01:30:28;;;;;;;25.98;18.83;;;;;;;0.96;56.84;102658.88;4990757;28;20029;-20
2022/03/22 01:32:55;;;;;;;28.20;18.67;;;;;;;0.92;57.08;102657.81;4992193;28;20034;-22
2022/03/22 01:35:21;;;;;;;27.52;18.45;;;;;;;0.91;56.56;102660.31;4996442;28;20185;-22
2022/03/22 01:37:47;;;;;;;28.75;18.20;;;;;;;0.86;56.68;102655.72;4992642;28;20404;-21
2022/03/22 01:40:14;;;;;;;26.30;18.55;;;;;;;0.84;56.78;102654.72;4997716;28;20034;-22
2022/03/22 01:42:39;;;;;;;27.52;19.10;;;;;;;0.81;57.22;102649.34;4992928;28;20635;-20
2022/03/22 01:45:07;;;;;;;26.20;17.65;;;;;;;0.78;57.34;102654.34;4990605;28;20038;-21
2022/03/22 01:47:35;;;;;;;25.00;18.85;;;;;;;0.75;57.14;102646.34;4995466;28;20164;-21
2022/03/22 01:50:00;;;;;;;26.42;18.48;;;;;;;0.72;56.95;102648.75;4994155;28;20030;-22
2022/03/22 01:52:26;;;;;;;25.92;17.77;;;;;;;0.69;56.97;102640.75;4990628;28;20027;-22
2022/03/22 01:54:54;;;;;;;23.73;17.65;;;;;;;0.67;57.51;102644.97;4989805;28;20045;-22
2022/03/22 01:57:20;;;;;;;24.70;18.83;;;;;;;0.62;57.07;102640.41;4992582;28;20207;-20
2022/03/22 01:59:46;;;;;;;29.00;19.55;;;;;;;0.62;57.33;102643.00;4996357;28;20098;-20
2022/03/22 02:07:40;;;;;;;28.38;18.05;;;;;;;0.52;56.80;102635.41;4992053;28;20463;-21
2022/03/22 02:10:06;;;;;;;22.52;17.73;;;;;;;0.48;57.36;102636.91;4996174;28;20030;-23
2022/03/22 02:12:31;;;;;;;25.67;17.30;;;;;;;0.46;57.19;102637.59;4996570;28;20042;-22
2022/03/22 02:14:57;;;;;;;28.33;18.58;;;;;;;0.42;57.16;102630.41;4994923;28;20096;-22
2022/03/22 02:17:22;;;;;;;22.45;17.90;;;;;;;0.40;57.16;102629.44;4992950;28;20022;-22
2022/03/22 02:19:47;;;;;;;24.60;17.95;;;;;;;0.37;57.35;102625.81;4999430;28;20018;-22
2022/03/22 02:22:18;;;;;;;23.92;17.95;;;;;;;0.35;57.49;102629.13;4996798;28;20022;-22
2022/03/22 02:24:43;;;;;;;24.33;17.60;;;;;;;0.32;57.13;102624.63;4981216;28;20548;-21
2022/03/22 02:27:09;;;;;;;25.13;19.08;;;;;;;0.31;57.29;102629.72;4992898;28;20036;-20
2022/03/22 02:29:35;;;;;;;25.00;16.88;;;;;;;0.27;57.07;102623.44;4992552;28;20027;-21
2022/03/22 02:32:07;;;;;;;25.35;17.60;;;;;;;0.24;57.26;102626.72;4980171;28;20041;-22
2022/03/22 02:34:36;;;;;;;23.02;17.60;;;;;;;0.22;57.17;102630.94;4998998;28;20118;-22
2022/03/22 02:37:02;;;;;;;25.17;17.58;;;;;;;0.20;57.42;102631.63;4995811;28;20022;-21
2022/03/22 02:39:27;;;;;;;27.25;17.63;;;;;;;0.16;57.60;102629.63;4995368;28;20030;-22
2022/03/22 02:41:53;;;;;;;26.58;18.25;;;;;;;0.14;57.44;102626.94;4996015;28;20041;-20
2022/03/22 02:44:19;;;;;;;25.90;18.45;;;;;;;0.10;57.29;102625.81;4991150;28;20041;-20
2022/03/22 02:46:45;;;;;;;24.90;17.90;;;;;;;0.08;57.04;102627.44;4994487;28;20045;-20
2022/03/22 02:49:11;;;;;;;26.00;18.50;;;;;;;0.05;57.53;102627.22;4996415;28;20029;-21
2022/03/22 02:51:37;;;;;;;28.15;18.35;;;;;;;0.04;57.72;102630.63;4992125;28;20030;-20
2022/03/22 02:54:02;;;;;;;25.77;17.40;;;;;;;0.02;57.39;102637.41;4992735;28;20085;-21
2022/03/22 02:56:27;;;;;;;27.13;18.25;;;;;;;-0.02;57.30;102638.00;4994162;28;20028;-20
2022/03/22 02:58:53;;;;;;;24.60;17.77;;;;;;;-0.05;57.63;102636.09;4988510;28;20045;-21
2022/03/22 03:01:18;;;;;;;24.13;17.80;;;;;;;-0.07;57.65;102634.22;4993319;28;20034;-21
2022/03/22 03:03:43;;;;;;;27.92;19.95;;;;;;;-0.08;57.30;102637.56;4992717;28;20049;-20
2022/03/22 03:06:09;;;;;;;25.45;16.77;;;;;;;-0.11;57.44;102627.91;4995829;28;20116;-21
2022/03/22 03:08:34;;;;;;;29.08;18.63;;;;;;;-0.14;57.50;102631.19;4992558;28;20035;-21
2022/03/22 03:11:00;;;;;;;26.50;17.67;;;;;;;-0.16;57.38;102625.00;4994527;28;20030;-21
2022/03/22 03:13:25;;;;;;;26.95;17.73;;;;;;;-0.18;57.84;102628.28;4992734;28;20152;-21
2022/03/22 03:15:50;;;;;;;27.27;19.00;;;;;;;-0.22;57.73;102629.78;4992370;28;20444;-21
2022/03/22 03:18:18;;;;;;;24.42;17.70;;;;;;;-0.24;57.57;102623.59;4992365;28;20038;-21
2022/03/22 03:20:43;;;;;;;27.13;18.20;;;;;;;-0.25;57.40;102632.19;4989488;28;20484;-21
2022/03/22 03:23:08;;;;;;;29.13;17.67;;;;;;;-0.29;57.74;102619.81;4993127;28;20033;-21
2022/03/22 03:25:35;;;;;;;26.52;17.75;;;;;;;-0.32;57.84;102614.41;4992446;28;20354;-20
2022/03/22 03:28:01;;;;;;;28.92;17.55;;;;;;;-0.33;57.96;102625.59;4995757;28;20034;-21
2022/03/22 03:30:26;;;;;;;25.38;17.17;;;;;;;-0.36;57.77;102622.78;4996100;28;20488;-21
2022/03/22 03:32:51;;;;;;;29.50;19.42;;;;;;;-0.40;57.74;102625.16;4977137;28;20131;-21
2022/03/22 03:35:17;;;;;;;25.95;16.95;;;;;;;-0.40;57.78;102621.69;4999987;28;20026;-21
2022/03/22 03:37:43;;;;;;;24.85;16.95;;;;;;;-0.43;57.51;102621.47;4982484;28;20040;-21
2022/03/22 03:40:09;;;;;;;25.35;17.38;;;;;;;-0.47;58.06;102620.34;4996052;28;20026;-21
2022/03/22 03:42:42;;;;;;;25.45;18.30;;;;;;;-0.48;57.65;102621.16;4994565;28;20073;-21
2022/03/22 03:47:56;;;;;;;28.20;18.25;;;;;;;-0.53;57.81;102623.41;4992584;28;20187;-21
2022/03/22 03:50:21;;;;;;;29.23;18.25;;;;;;;-0.55;57.66;102618.94;4996038;28;20109;-21
2022/03/22 03:52:47;;;;;;;26.00;17.58;;;;;;;-0.59;57.76;102622.09;4994304;28;20129;-21
2022/03/22 03:55:12;;;;;;;23.50;16.75;;;;;;;-0.61;57.40;102623.69;4995215;28;20041;-21
2022/03/22 03:57:38;;;;;;;26.77;18.13;;;;;;;-0.62;57.59;102624.47;4994078;28;20412;-21
2022/03/22 04:00:04;;;;;;;27.25;17.17;;;;;;;-0.63;57.88;102627.88;4992965;28;20034;-21
2022/03/22 04:02:30;;;;;;;29.40;18.20;;;;;;;-0.67;58.24;102635.44;4992845;28;20497;-21
2022/03/22 04:04:55;;;;;;;24.83;17.63;;;;;;;-0.70;57.74;102630.03;4996015;28;20101;-21
2022/03/22 04:07:23;;;;;;;26.63;17.60;;;;;;;-0.72;57.75;102630.72;4997284;28;20076;-21
2022/03/22 04:09:49;;;;;;;26.77;18.80;;;;;;;-0.74;58.24;102629.75;4989150;28;20519;-21
2022/03/22 04:12:14;;;;;;;27.73;17.77;;;;;;;-0.76;57.75;102634.81;4994618;28;20553;-21
2022/03/22 04:14:40;;;;;;;29.33;18.17;;;;;;;-0.80;57.57;102632.81;4991394;28;20033;-21
2022/03/22 04:17:09;;;;;;;25.55;18.15;;;;;;;-0.82;58.08;102636.97;4993032;28;20030;-21
2022/03/22 04:19:37;;;;;;;25.92;17.88;;;;;;;-0.83;57.87;102637.78;4995245;28;20034;-21
2022/03/22 04:22:04;;;;;;;24.85;17.67;;;;;;;-0.85;57.87;102634.16;4996768;28;20352;-21
2022/03/22 04:24:30;;;;;;;23.92;17.63;;;;;;;-0.88;58.01;102634.84;4992247;28;20033;-21
2022/03/22 04:32:41;;;;;;;29.20;18.60;;;;;;;-0.89;57.61;102634.75;4993367;28;20026;-21
2022/03/22 04:32:43;;;;;;;28.05;17.15;;;;;;;-0.95;58.17;102636.13;4994941;28;20088;-21
2022/03/22 04:35:10;;;;;;;25.38;16.88;;;;;;;-0.98;58.28;102641.09;4998559;28;20614;-21
2022/03/22 04:37:36;;;;;;;25.17;19.17;;;;;;;-1.00;57.56;102641.78;4993723;28;20026;-21
2022/03/22 04:40:01;;;;;;;23.85;18.60;;;;;;;-1.03;57.70;102642.47;4996493;28;20029;-21
2022/03/22 04:42:26;;;;;;;24.98;17.48;;;;;;;-1.05;58.36;102636.25;4992323;28;20018;-21
2022/03/22 04:44:52;;;;;;;24.83;16.80;;;;;;;-1.06;58.21;102637.94;4990705;28;20042;-21
2022/03/22 04:47:17;;;;;;;25.52;16.95;;;;;;;-1.08;58.07;102642.13;4987716;28;20034;-21
2022/03/22 04:49:43;;;;;;;25.67;17.52;;;;;;;-1.10;58.24;102640.22;4988756;28;20481;-21
2022/03/22 04:57:36;;;;;;;27.73;18.20;;;;;;;-1.17;58.08;102644.97;4993281;28;20116;-21
2022/03/22 05:00:02;;;;;;;26.40;17.85;;;;;;;-1.19;58.26;102646.56;4997698;28;20030;-21
2022/03/22 05:02:28;;;;;;;26.13;18.00;;;;;;;-1.20;58.11;102644.75;4987499;28;20035;-21
2022/03/22 05:04:53;;;;;;;26.63;18.92;;;;;;;-1.22;58.41;102641.16;4995955;28;20637;-21
2022/03/22 05:07:18;;;;;;;26.85;18.33;;;;;;;-1.25;57.92;102640.94;4991010;28;20436;-21
2022/03/22 05:09:44;;;;;;;26.67;18.23;;;;;;;-1.26;58.26;102633.97;4991912;28;20124;-21
2022/03/22 05:12:13;;;;;;;28.55;18.27;;;;;;;-1.29;57.65;102638.91;4994963;28;20029;-21
2022/03/22 05:14:39;;;;;;;28.88;18.30;;;;;;;-1.30;57.77;102652.66;4996499;28;20022;-21
2022/03/22 05:17:04;;;;;;;30.25;20.00;;;;;;;-1.32;58.54;102646.47;4998770;28;20022;-21
2022/03/22 05:19:30;;;;;;;25.70;18.35;;;;;;;-1.35;58.26;102643.66;4991862;28;20022;-21
2022/03/22 05:21:55;;;;;;;29.08;18.42;;;;;;;-1.36;58.25;102647.94;4990649;28;20101;-21
2022/03/22 05:24:20;;;;;;;25.40;18.35;;;;;;;-1.38;58.38;102652.09;4986086;28;20034;-21
2022/03/22 05:26:46;;;;;;;30.65;18.83;;;;;;;-1.39;58.38;102651.97;4987559;28;20397;-21
2022/03/22 05:29:13;;;;;;;23.52;17.75;;;;;;;-1.42;58.44;102657.84;4990568;28;20034;-21
2022/03/22 05:31:39;;;;;;;27.33;17.70;;;;;;;-1.44;58.03;102655.16;4994167;28;20032;-21
2022/03/22 05:34:05;;;;;;;25.98;18.63;;;;;;;-1.45;58.31;102650.75;4991348;28;20053;-21
2022/03/22 05:36:31;;;;;;;31.77;19.48;;;;;;;-1.47;58.48;102654.91;4994985;28;20448;-21
2022/03/22 05:38:56;;;;;;;26.98;17.90;;;;;;;-1.48;58.53;102658.31;4994925;28;20406;-21
2022/03/22 05:41:22;;;;;;;27.10;18.17;;;;;;;-1.49;58.53;102655.59;4991978;28;20028;-21
2022/03/22 05:43:48;;;;;;;28.17;18.65;;;;;;;-1.51;58.20;102668.44;4990516;28;20034;-21
2022/03/22 05:46:16;;;;;;;27.38;18.52;;;;;;;-1.51;58.43;102663.25;4987737;28;20300;-21
2022/03/22 05:48:43;;;;;;;25.35;17.92;;;;;;;-1.52;58.25;102666.63;4990505;28;20124;-21
2022/03/22 05:51:08;;;;;;;25.77;17.65;;;;;;;-1.54;58.70;102663.03;4992220;28;20041;-21
2022/03/22 05:53:34;;;;;;;23.58;17.15;;;;;;;-1.55;58.77;102661.22;4994421;28;20023;-21
2022/03/22 05:55:59;;;;;;;25.35;17.75;;;;;;;-1.56;58.52;102665.50;4990734;28;20125;-21
2022/03/22 05:58:24;;;;;;;27.92;18.02;;;;;;;-1.58;58.37;102661.91;4991198;28;20077;-21
2022/03/22 06:00:50;;;;;;;27.08;19.17;;;;;;;-1.57;58.64;102665.41;4991198;28;20026;-21
2022/03/22 06:03:15;;;;;;;24.67;16.40;;;;;;;-1.57;58.41;102673.19;4990387;28;20137;-21
2022/03/22 06:05:42;;;;;;;25.90;18.38;;;;;;;-1.57;58.56;102683.53;4991235;28;20031;-21
2022/03/22 06:08:08;;;;;;;29.67;17.10;;;;;;;-1.58;58.82;102679.13;4992466;28;20064;-21
2022/03/22 06:10:33;;;;;;;25.48;17.65;;;;;;;-1.58;58.78;102681.69;4991991;28;20058;-21
2022/03/22 06:12:59;;;;;;;31.10;18.92;;;;;;;-1.58;59.21;102685.19;4989468;28;20056;-21
2022/03/22 06:15:26;;;;;;;24.67;16.70;;;;;;;-1.59;59.13;102682.50;4990340;28;20152;-21
2022/03/22 06:17:56;;;;;;;25.23;16.63;;;;;;;-1.58;58.67;102681.69;4990078;28;20383;-21
2022/03/22 06:20:31;;;;;;;30.20;18.20;;;;;;;-1.58;58.88;102681.69;4992258;28;20031;-21
2022/03/22 06:22:57;;;;;;;28.02;17.88;;;;;;;-1.57;58.67;102689.59;4986242;28;20161;-21
2022/03/22 06:25:22;;;;;;;27.95;18.02;;;;;;;-1.56;58.84;102686.19;4988906;28;20109;-21
2022/03/22 06:27:49;;;;;;;25.02;17.10;;;;;;;-1.55;58.80;102697.47;4984453;28;20033;-21
2022/03/22 06:30:15;;;;;;;24.65;16.55;;;;;;;-1.54;58.64;102688.91;4989175;28;20034;-21
2022/03/22 06:32:52;;;;;;;22.40;17.05;;;;;;;-1.54;58.92;102696.66;4991743;28;20111;-21
2022/03/22 06:35:31;;;;;;;24.35;16.55;;;;;;;-1.51;59.00;102696.91;4995786;28;20037;-21
2022/03/22 06:37:57;;;;;;;30.58;18.35;;;;;;;-1.49;59.22;102702.19;4993082;28;20408;-21
2022/03/22 06:40:27;;;;;;;24.58;16.45;;;;;;;-1.47;58.46;102698.03;4997657;28;20377;-21
2022/03/22 06:42:53;;;;;;;26.38;16.90;;;;;;;-1.46;58.42;102703.31;4992954;28;20472;-21
2022/03/22 06:45:19;;;;;;;23.80;17.02;;;;;;;-1.43;59.35;102703.53;4992342;28;20116;-21
2022/03/22 06:47:46;;;;;;;23.98;17.67;;;;;;;-1.40;59.24;102712.31;4989618;28;20041;-21
2022/03/22 06:50:13;;;;;;;25.10;17.60;;;;;;;-1.36;59.61;102706.56;4987997;28;20054;-21
2022/03/22 06:52:38;;;;;;;27.85;17.88;;;;;;;-1.33;60.35;102707.69;4985800;28;20489;-21
2022/03/22 06:55:05;;;;;;;22.65;16.85;;;;;;;-1.30;60.04;102709.63;4986619;28;20029;-21
2022/03/22 06:57:31;;;;;;;27.80;18.63;;;;;;;-1.25;60.18;102707.34;4971179;28;20034;-21
2022/03/22 06:59:57;;;;;;;27.63;18.73;;;;;;;-1.21;60.58;102707.69;4991050;28;20507;-21
2022/03/22 07:02:23;;;;;;;26.05;18.83;;;;;;;-1.19;61.12;102705.22;4990996;28;20033;-21
2022/03/22 07:04:49;;;;;;;27.85;18.85;;;;;;;-1.14;60.23;102708.16;4989860;28;20026;-21
2022/03/22 07:07:15;;;;;;;26.63;18.00;;;;;;;-1.09;60.34;102712.88;4988896;28;20033;-21
2022/03/22 07:09:41;;;;;;;26.80;17.55;;;;;;;-1.03;60.63;102715.00;4988880;28;20037;-21
2022/03/22 07:12:07;;;;;;;24.13;18.38;;;;;;;-1.00;59.91;102707.41;4986374;28;20085;-21
2022/03/22 07:14:33;;;;;;;27.63;19.33;;;;;;;-0.95;59.80;102716.44;4989242;28;20034;-21
2022/03/22 07:16:58;;;;;;;25.35;17.05;;;;;;;-0.93;59.69;102701.88;4989941;28;20034;-21
2022/03/22 07:19:23;;;;;;;29.55;18.33;;;;;;;-0.84;59.79;102722.38;4991250;28;20054;-21
2022/03/22 07:21:49;;;;;;;28.25;17.00;;;;;;;-0.79;59.92;102712.34;4985055;28;20028;-20
2022/03/22 07:24:18;;;;;;;24.75;16.67;;;;;;;-0.72;59.20;102711.97;4989123;28;20039;-20
2022/03/22 07:26:44;;;;;;;26.98;17.48;;;;;;;-0.68;59.55;102711.41;4988624;28;20490;-20
2022/03/22 07:29:09;;;;;;;23.55;17.08;;;;;;;-0.62;59.33;102713.53;4989837;28;20026;-20
2022/03/22 07:31:38;;;;;;;24.75;17.33;;;;;;;-0.55;59.31;102718.34;4988402;28;20081;-20
2022/03/22 07:34:15;;;;;;;24.13;17.67;;;;;;;-0.44;59.89;102719.09;4988090;28;20197;-20
2022/03/22 07:36:44;;;;;;;27.13;18.08;;;;;;;-0.35;59.74;102724.00;4987779;28;20034;-20
2022/03/22 07:39:11;;;;;;;26.55;17.85;;;;;;;-0.26;59.21;102728.94;4985493;28;20061;-20
2022/03/22 07:41:38;;;;;;;24.40;17.00;;;;;;;-0.18;59.36;102729.44;4987212;28;20046;-20
2022/03/22 07:44:04;;;;;;;26.15;17.98;;;;;;;-0.08;59.29;102733.56;4986740;28;20484;-20
2022/03/22 07:46:30;;;;;;;26.67;18.40;;;;;;;-0.02;58.58;102731.41;4988178;28;20053;-20
2022/03/22 07:52:58;;;;;;;25.30;18.42;;;;;;;0.04;58.79;102736.09;4989854;28;20053;-20
2022/03/22 07:54:25;;;;;;;25.40;18.23;;;;;;;0.27;59.05;102731.56;4992806;28;20119;-20
2022/03/22 07:56:51;;;;;;;26.27;18.05;;;;;;;0.35;58.44;102736.47;4990342;28;20033;-20
2022/03/22 07:59:16;;;;;;;36.58;22.10;;;;;;;1.06;68.05;102734.03;4995597;28;20124;-20
2022/03/22 08:01:42;;;;;;;36.30;23.88;;;;;;;1.65;68.11;102728.97;4995394;28;20105;-20
2022/03/22 08:04:07;;;;;;;29.08;20.88;;;;;;;1.91;65.81;102724.44;4994543;28;20042;-20
2022/03/22 08:06:32;;;;;;;34.53;22.42;;;;;;;2.12;64.81;102737.84;4987430;28;20400;-20
2022/03/22 08:08:58;;;;;;;32.30;22.63;;;;;;;2.31;64.98;102736.31;4991851;28;20121;-20
2022/03/22 08:11:24;;;;;;;36.67;23.92;;;;;;;2.79;66.17;102727.72;4991983;28;20026;-20
2022/03/22 08:13:49;;;;;;;31.67;23.42;;;;;;;2.81;63.90;102731.31;4990519;28;20172;-20
2022/03/22 08:16:15;;;;;;;29.83;21.45;;;;;;;2.77;63.18;102732.84;4988232;28;20054;-20
2022/03/22 08:18:40;;;;;;;33.80;22.85;;;;;;;2.93;62.98;102724.19;4992808;28;20035;-20
2022/03/22 08:21:05;;;;;;;31.00;22.55;;;;;;;3.40;62.41;102720.59;4987141;28;20119;-20
2022/03/22 08:23:31;;;;;;;32.95;21.60;;;;;;;3.63;61.09;102727.00;4988975;28;20501;-21
2022/03/22 08:25:57;;;;;;;28.58;21.38;;;;;;;4.22;59.83;102713.47;4990523;28;20034;-21
2022/03/22 08:28:22;;;;;;;28.17;20.75;;;;;;;4.39;59.91;102714.31;4992473;28;20106;-21
2022/03/22 08:30:48;;;;;;;26.15;19.58;;;;;;;4.38;57.66;102715.13;4992971;28;20030;-21
2022/03/22 08:33:13;;;;;;;27.92;19.98;;;;;;;4.53;59.28;102719.31;4995412;28;20041;-21
2022/03/22 08:35:41;;;;;;;28.80;19.77;;;;;;;4.61;58.58;102712.75;4989331;28;20023;-21
2022/03/22 08:38:07;;;;;;;26.85;18.60;;;;;;;4.94;57.38;102706.44;4989040;28;20558;-21
2022/03/22 08:40:33;;;;;;;25.45;18.17;;;;;;;5.25;58.89;102711.38;4990171;28;20034;-21
2022/03/22 08:42:58;;;;;;;23.30;16.48;;;;;;;5.74;53.93;102716.13;4988833;28;20015;-21
2022/03/22 08:45:26;;;;;;;27.48;16.48;;;;;;;6.13;55.00;102716.09;4989166;28;20033;-21
2022/03/22 08:47:53;;;;;;;26.67;16.65;;;;;;;6.43;53.36;102709.44;4989024;28;20885;-21
2022/03/22 08:50:20;;;;;;;24.30;15.15;;;;;;;6.72;50.40;102701.84;4990171;28;20022;-20
2022/03/22 08:52:49;;;;;;;20.70;14.23;;;;;;;7.15;51.95;102691.22;4990439;28;20354;-21
2022/03/22 08:55:17;;;;;;;17.73;14.15;;;;;;;7.30;50.29;102697.03;4991610;28;20117;-21
2022/03/22 08:57:44;;;;;;;18.95;14.48;;;;;;;7.44;50.90;102688.81;4992231;28;20018;-21
2022/03/22 09:00:11;;;;;;;19.33;14.70;;;;;;;7.57;47.96;102685.75;4990952;28;20121;-21
2022/03/22 09:02:41;;;;;;;17.55;14.25;;;;;;;7.52;48.08;102689.97;4991673;28;20018;-21
2022/03/22 09:07:52;;;;;;;22.02;15.70;;;;;;;7.78;49.38;102689.09;4987617;28;20036;-21
2022/03/22 09:10:20;;;;;;;19.17;14.48;;;;;;;7.99;46.74;102688.94;4988696;28;20397;-21
2022/03/22 09:12:49;;;;;;;20.80;15.95;;;;;;;7.85;49.90;102679.69;4987411;28;20057;-21
2022/03/22 09:15:15;;;;;;;24.48;15.95;;;;;;;7.99;48.60;102673.19;4986741;28;20084;-21
2022/03/22 09:17:41;;;;;;;25.92;15.93;;;;;;;8.03;47.00;102668.91;4989788;28;20122;-21
2022/03/22 09:20:07;;;;;;;21.17;15.00;;;;;;;8.18;45.81;102671.16;4989305;28;20062;-21
2022/03/22 09:22:32;;;;;;;22.55;16.00;;;;;;;8.33;45.39;102663.78;4988578;28;20080;-21
2022/03/22 09:24:58;;;;;;;20.85;14.57;;;;;;;8.69;47.64;102661.41;4986157;28;20034;-21
2022/03/22 09:27:24;;;;;;;22.15;14.68;;;;;;;8.96;44.10;102658.72;4990155;28;20037;-21
2022/03/22 09:29:49;;;;;;;15.45;13.65;;;;;;;8.90;44.37;102653.25;4990971;28;20054;-21
2022/03/22 09:32:15;;;;;;;21.23;16.45;;;;;;;9.20;45.89;102654.09;4988821;28;20040;-21
2022/03/22 09:34:40;;;;;;;21.40;15.57;;;;;;;9.52;44.30;102648.84;4989489;28;20789;-21
2022/03/22 09:37:07;;;;;;;18.15;14.27;;;;;;;9.27;44.89;102650.78;4991666;28;20602;-21
2022/03/22 09:39:33;;;;;;;24.23;14.82;;;;;;;9.31;45.08;102647.41;4988184;28;20057;-21
2022/03/22 09:42:00;;;;;;;20.55;14.73;;;;;;;9.40;44.64;102645.91;4986362;28;20026;-21
2022/03/22 09:44:28;;;;;;;20.55;13.90;;;;;;;9.54;45.04;102649.78;4965965;28;20109;-21
2022/03/22 09:46:55;;;;;;;19.95;14.68;;;;;;;9.63;46.33;102644.78;4988064;28;20129;-21
2022/03/22 09:49:20;;;;;;;17.92;13.48;;;;;;;9.57;46.93;102643.72;4987465;28;20037;-21
2022/03/22 09:51:46;;;;;;;19.33;13.85;;;;;;;9.57;47.48;102647.22;4987212;28;20503;-21
2022/03/22 09:54:19;;;;;;;17.45;13.63;;;;;;;9.64;48.13;102637.78;4988683;28;20441;-21
2022/03/22 09:56:46;;;;;;;21.13;13.50;;;;;;;9.67;48.42;102636.94;4984955;28;20046;-21
2022/03/22 09:59:14;;;;;;;16.52;12.65;;;;;;;9.77;49.30;102640.72;4982923;28;20035;-21
2022/03/22 10:01:40;;;;;;;16.73;13.70;;;;;;;9.82;49.01;102639.97;4983458;28;20026;-21
2022/03/22 10:04:07;;;;;;;18.00;14.00;;;;;;;9.88;49.33;102645.38;4987908;28;20030;-20
2022/03/22 10:06:33;;;;;;;19.10;14.02;;;;;;;10.00;49.57;102634.28;4985888;28;20096;-20
2022/03/22 10:08:59;;;;;;;17.25;13.18;;;;;;;10.08;49.96;102629.22;4984198;28;20654;-20
2022/03/22 10:11:36;;;;;;;16.77;12.60;;;;;;;10.17;49.76;102623.25;4985292;28;20025;-21
2022/03/22 10:14:02;;;;;;;17.13;13.05;;;;;;;10.26;49.70;102625.22;4988729;28;20035;-21
2022/03/22 10:16:28;;;;;;;16.77;13.32;;;;;;;10.37;49.43;102620.22;4988436;28;20030;-21
2022/03/22 10:18:53;;;;;;;15.88;13.18;;;;;;;10.47;49.68;102619.56;4989917;28;20728;-21
2022/03/22 10:21:19;;;;;;;14.65;12.93;;;;;;;10.59;49.78;102623.34;4988040;28;20077;-21
2022/03/22 10:23:48;;;;;;;16.05;12.38;;;;;;;10.68;49.19;102620.03;4986483;28;20033;-21
2022/03/22 10:26:14;;;;;;;14.63;11.75;;;;;;;10.83;49.62;102623.00;4988673;28;20116;-21
2022/03/22 10:28:51;;;;;;;15.02;12.00;;;;;;;10.97;49.57;102622.41;4986568;28;20490;-21
2022/03/22 10:31:17;;;;;;;15.27;12.13;;;;;;;11.13;49.72;102621.84;4986671;28;20122;-21
2022/03/22 10:33:52;;;;;;;14.65;11.85;;;;;;;11.24;49.29;102615.88;4985535;28;20173;-21
2022/03/22 10:36:19;;;;;;;14.45;11.63;;;;;;;11.36;49.83;102616.13;4987548;28;20026;-21
2022/03/22 10:38:55;;;;;;;14.85;10.82;;;;;;;11.46;49.45;102613.63;4985062;28;20112;-20
2022/03/22 10:41:28;;;;;;;13.15;11.02;;;;;;;11.59;49.31;102613.00;4987254;28;20497;-21
2022/03/22 10:44:03;;;;;;;12.13;10.50;;;;;;;11.70;48.80;102601.75;4987402;28;20057;-20
2022/03/22 10:46:29;;;;;;;14.68;11.75;;;;;;;11.78;48.72;102605.41;4987381;28;20026;-20
2022/03/22 10:49:20;;;;;;;16.38;11.52;;;;;;;11.94;48.68;102602.13;4987099;28;20084;-20
2022/03/22 10:51:48;;;;;;;13.35;10.60;;;;;;;12.05;49.05;102598.78;4982689;28;20401;-20
2022/03/22 10:54:17;;;;;;;14.18;11.30;;;;;;;12.15;48.89;102606.03;4987591;28;20234;-20
2022/03/22 10:56:50;;;;;;;13.98;11.10;;;;;;;12.27;48.22;102605.31;4984014;28;20045;-20
2022/03/22 10:59:18;;;;;;;13.55;11.25;;;;;;;12.39;47.99;102596.66;4986528;28;20120;-20
2022/03/22 11:01:45;;;;;;;16.77;10.98;;;;;;;12.48;47.91;102598.56;4984573;28;20044;-20
2022/03/22 11:04:12;;;;;;;14.68;11.93;;;;;;;12.59;47.54;102598.69;4989203;28;20440;-20
2022/03/22 11:06:41;;;;;;;13.68;11.38;;;;;;;12.68;47.24;102596.16;4987813;28;20038;-20
2022/03/22 11:09:06;;;;;;;13.27;10.93;;;;;;;12.80;47.41;102594.53;4986536;28;20157;-20
2022/03/22 11:11:32;;;;;;;14.40;10.90;;;;;;;12.92;47.43;102592.06;4985440;28;20121;-20
2022/03/22 11:13:59;;;;;;;13.85;10.35;;;;;;;12.96;47.13;102591.22;4967905;28;20026;-20
2022/03/22 11:16:29;;;;;;;15.05;11.30;;;;;;;13.08;47.23;102595.75;4987044;28;20389;-20
2022/03/22 11:19:01;;;;;;;13.90;11.67;;;;;;;13.24;46.33;102585.31;4986931;28;20030;-20
2022/03/22 11:21:27;;;;;;;13.40;10.98;;;;;;;13.32;46.43;102581.00;4989329;28;20045;-20
2022/03/22 11:24:09;;;;;;;14.40;10.57;;;;;;;13.42;47.35;102579.34;4991613;28;20427;-20
2022/03/22 11:26:42;;;;;;;16.08;11.65;;;;;;;13.53;46.82;102573.25;4992511;28;20433;-20
2022/03/22 11:29:09;;;;;;;11.95;10.70;;;;;;;13.60;46.93;102567.13;4989393;28;20034;-20
2022/03/22 11:31:35;;;;;;;12.80;10.27;;;;;;;13.70;46.70;102566.34;4984813;28;20045;-20